sensor_id;sensor_type;location;lat;lon;timestamp;P1;durP1;ratioP1;P2;durP2;ratioP2
46651;SDS011;32377;52.182;5.398;2023-04-24T00:00:04;3.05;;;1.98;;
46651;SDS011;32377;52.182;5.398;2023-04-24T00:02:31;2.33;;;1.83;;
46651;SDS011;32377;52.182;5.398;2023-04-24T00:04:57;3.92;;;1.95;;
46651;SDS011;32377;52.182;5.398;2023-04-24T00:07:27;1.98;;;1.73;;
46651;SDS011;32377;52.182;5.398;2023-04-24T00:09:53;3.63;;;1.80;;
46651;SDS011;32377;52.182;5.398;2023-04-24T00:12:19;3.50;;;1.85;;
46651;SDS011;32377;52.182;5.398;2023-04-24T00:14:45;1.92;;;1.67;;
46651;SDS011;32377;52.182;5.398;2023-04-24T00:17:11;3.28;;;2.20;;
46651;SDS011;32377;52.182;5.398;2023-04-24T00:19:36;2.75;;;2.10;;
46651;SDS011;32377;52.182;5.398;2023-04-24T00:22:02;4.00;;;1.70;;
46651;SDS011;32377;52.182;5.398;2023-04-24T00:24:28;2.25;;;2.05;;
46651;SDS011;32377;52.182;5.398;2023-04-24T00:26:54;2.63;;;2.00;;
46651;SDS011;32377;52.182;5.398;2023-04-24T00:29:19;2.58;;;1.92;;
46651;SDS011;32377;52.182;5.398;2023-04-24T00:31:45;2.88;;;1.42;;
46651;SDS011;32377;52.182;5.398;2023-04-24T00:34:11;2.97;;;1.33;;
46651;SDS011;32377;52.182;5.398;2023-04-24T00:36:37;1.63;;;1.30;;
46651;SDS011;32377;52.182;5.398;2023-04-24T00:39:03;1.75;;;1.10;;
46651;SDS011;32377;52.182;5.398;2023-04-24T00:41:28;1.48;;;1.17;;
46651;SDS011;32377;52.182;5.398;2023-04-24T00:43:55;2.97;;;1.17;;
46651;SDS011;32377;52.182;5.398;2023-04-24T00:46:21;2.28;;;1.10;;
46651;SDS011;32377;52.182;5.398;2023-04-24T00:48:46;6.10;;;1.10;;
46651;SDS011;32377;52.182;5.398;2023-04-24T00:51:12;2.00;;;1.27;;
46651;SDS011;32377;52.182;5.398;2023-04-24T00:53:38;2.60;;;1.23;;
46651;SDS011;32377;52.182;5.398;2023-04-24T00:56:04;4.10;;;1.20;;
46651;SDS011;32377;52.182;5.398;2023-04-24T00:58:30;1.65;;;1.40;;
46651;SDS011;32377;52.182;5.398;2023-04-24T01:00:56;6.03;;;1.48;;
46651;SDS011;32377;52.182;5.398;2023-04-24T01:03:26;3.85;;;1.80;;
46651;SDS011;32377;52.182;5.398;2023-04-24T01:05:55;1.88;;;1.35;;
46651;SDS011;32377;52.182;5.398;2023-04-24T01:08:22;2.72;;;1.27;;
46651;SDS011;32377;52.182;5.398;2023-04-24T01:10:50;1.40;;;1.27;;
46651;SDS011;32377;52.182;5.398;2023-04-24T01:13:17;3.50;;;1.55;;
46651;SDS011;32377;52.182;5.398;2023-04-24T01:15:46;3.78;;;1.50;;
46651;SDS011;32377;52.182;5.398;2023-04-24T01:18:12;1.67;;;1.17;;
46651;SDS011;32377;52.182;5.398;2023-04-24T01:20:39;2.25;;;1.50;;
46651;SDS011;32377;52.182;5.398;2023-04-24T01:23:06;2.15;;;1.70;;
46651;SDS011;32377;52.182;5.398;2023-04-24T01:25:32;2.35;;;1.98;;
46651;SDS011;32377;52.182;5.398;2023-04-24T01:27:58;2.75;;;2.00;;
46651;SDS011;32377;52.182;5.398;2023-04-24T01:30:25;3.22;;;2.28;;
46651;SDS011;32377;52.182;5.398;2023-04-24T01:32:51;2.90;;;2.58;;
46651;SDS011;32377;52.182;5.398;2023-04-24T01:35:18;5.07;;;2.97;;
46651;SDS011;32377;52.182;5.398;2023-04-24T01:37:43;5.35;;;3.60;;
46651;SDS011;32377;52.182;5.398;2023-04-24T01:40:09;4.38;;;3.72;;
46651;SDS011;32377;52.182;5.398;2023-04-24T01:42:35;6.40;;;3.88;;
46651;SDS011;32377;52.182;5.398;2023-04-24T01:45:02;6.32;;;4.53;;
46651;SDS011;32377;52.182;5.398;2023-04-24T01:47:29;6.85;;;4.32;;
46651;SDS011;32377;52.182;5.398;2023-04-24T01:49:55;6.28;;;5.00;;
46651;SDS011;32377;52.182;5.398;2023-04-24T01:52:21;7.70;;;5.53;;
46651;SDS011;32377;52.182;5.398;2023-04-24T01:54:47;9.95;;;5.53;;
46651;SDS011;32377;52.182;5.398;2023-04-24T01:57:13;9.50;;;6.15;;
46651;SDS011;32377;52.182;5.398;2023-04-24T01:59:39;7.10;;;5.95;;
46651;SDS011;32377;52.182;5.398;2023-04-24T02:02:05;7.47;;;5.85;;
46651;SDS011;32377;52.182;5.398;2023-04-24T02:04:31;7.75;;;6.38;;
46651;SDS011;32377;52.182;5.398;2023-04-24T02:06:56;10.68;;;5.97;;
46651;SDS011;32377;52.182;5.398;2023-04-24T02:09:22;8.52;;;5.70;;
46651;SDS011;32377;52.182;5.398;2023-04-24T02:11:48;7.47;;;5.95;;
46651;SDS011;32377;52.182;5.398;2023-04-24T02:14:13;9.77;;;6.97;;
46651;SDS011;32377;52.182;5.398;2023-04-24T02:16:39;9.38;;;6.78;;
46651;SDS011;32377;52.182;5.398;2023-04-24T02:19:05;8.38;;;6.78;;
46651;SDS011;32377;52.182;5.398;2023-04-24T02:21:30;8.90;;;6.85;;
46651;SDS011;32377;52.182;5.398;2023-04-24T02:23:56;8.90;;;7.10;;
46651;SDS011;32377;52.182;5.398;2023-04-24T02:26:22;11.05;;;7.93;;
46651;SDS011;32377;52.182;5.398;2023-04-24T02:28:48;17.08;;;8.02;;
46651;SDS011;32377;52.182;5.398;2023-04-24T02:31:13;11.50;;;8.88;;
46651;SDS011;32377;52.182;5.398;2023-04-24T02:33:39;10.52;;;8.00;;
46651;SDS011;32377;52.182;5.398;2023-04-24T02:36:05;13.52;;;8.55;;
46651;SDS011;32377;52.182;5.398;2023-04-24T02:38:31;10.43;;;7.70;;
46651;SDS011;32377;52.182;5.398;2023-04-24T02:40:56;9.57;;;7.68;;
46651;SDS011;32377;52.182;5.398;2023-04-24T02:43:22;11.70;;;8.45;;
46651;SDS011;32377;52.182;5.398;2023-04-24T02:45:47;9.45;;;7.45;;
46651;SDS011;32377;52.182;5.398;2023-04-24T02:48:13;10.07;;;6.88;;
46651;SDS011;32377;52.182;5.398;2023-04-24T02:50:39;10.57;;;7.03;;
46651;SDS011;32377;52.182;5.398;2023-04-24T02:53:05;7.13;;;5.60;;
46651;SDS011;32377;52.182;5.398;2023-04-24T02:55:31;6.32;;;4.80;;
46651;SDS011;32377;52.182;5.398;2023-04-24T02:57:56;6.97;;;5.15;;
46651;SDS011;32377;52.182;5.398;2023-04-24T03:00:22;7.00;;;4.90;;
46651;SDS011;32377;52.182;5.398;2023-04-24T03:02:48;5.95;;;4.25;;
46651;SDS011;32377;52.182;5.398;2023-04-24T03:05:14;6.43;;;3.50;;
46651;SDS011;32377;52.182;5.398;2023-04-24T03:07:40;6.88;;;3.10;;
46651;SDS011;32377;52.182;5.398;2023-04-24T03:10:06;2.85;;;2.25;;
46651;SDS011;32377;52.182;5.398;2023-04-24T03:12:32;3.92;;;2.08;;
46651;SDS011;32377;52.182;5.398;2023-04-24T03:14:57;2.47;;;1.30;;
46651;SDS011;32377;52.182;5.398;2023-04-24T03:17:23;2.80;;;1.52;;
46651;SDS011;32377;52.182;5.398;2023-04-24T03:19:49;2.17;;;1.27;;
46651;SDS011;32377;52.182;5.398;2023-04-24T03:22:15;2.53;;;1.38;;
46651;SDS011;32377;52.182;5.398;2023-04-24T03:24:40;1.95;;;1.55;;
46651;SDS011;32377;52.182;5.398;2023-04-24T03:27:06;1.77;;;1.48;;
46651;SDS011;32377;52.182;5.398;2023-04-24T03:29:31;3.38;;;1.80;;
46651;SDS011;32377;52.182;5.398;2023-04-24T03:31:57;2.85;;;1.60;;
46651;SDS011;32377;52.182;5.398;2023-04-24T03:34:23;2.20;;;1.70;;
46651;SDS011;32377;52.182;5.398;2023-04-24T03:36:48;2.90;;;1.63;;
46651;SDS011;32377;52.182;5.398;2023-04-24T03:39:14;2.42;;;1.70;;
46651;SDS011;32377;52.182;5.398;2023-04-24T03:41:39;3.25;;;1.70;;
46651;SDS011;32377;52.182;5.398;2023-04-24T03:44:05;2.78;;;1.75;;
46651;SDS011;32377;52.182;5.398;2023-04-24T03:46:31;2.88;;;2.08;;
46651;SDS011;32377;52.182;5.398;2023-04-24T03:48:56;2.10;;;1.67;;
46651;SDS011;32377;52.182;5.398;2023-04-24T03:51:22;2.25;;;1.58;;
46651;SDS011;32377;52.182;5.398;2023-04-24T03:53:48;3.17;;;1.73;;
46651;SDS011;32377;52.182;5.398;2023-04-24T03:59:21;2.25;;;1.90;;
46651;SDS011;32377;52.182;5.398;2023-04-24T04:01:47;4.03;;;2.20;;
46651;SDS011;32377;52.182;5.398;2023-04-24T04:04:12;4.38;;;2.55;;
46651;SDS011;32377;52.182;5.398;2023-04-24T04:06:41;3.33;;;1.85;;
46651;SDS011;32377;52.182;5.398;2023-04-24T04:09:07;2.88;;;2.10;;
46651;SDS011;32377;52.182;5.398;2023-04-24T04:11:33;2.85;;;1.90;;
46651;SDS011;32377;52.182;5.398;2023-04-24T04:14:00;3.85;;;2.22;;
46651;SDS011;32377;52.182;5.398;2023-04-24T04:16:26;4.72;;;2.95;;
46651;SDS011;32377;52.182;5.398;2023-04-24T04:18:52;4.57;;;2.30;;
46651;SDS011;32377;52.182;5.398;2023-04-24T04:21:17;2.20;;;1.98;;
46651;SDS011;32377;52.182;5.398;2023-04-24T04:23:43;3.78;;;2.25;;
46651;SDS011;32377;52.182;5.398;2023-04-24T04:26:08;2.70;;;1.75;;
46651;SDS011;32377;52.182;5.398;2023-04-24T04:28:34;2.35;;;1.60;;
46651;SDS011;32377;52.182;5.398;2023-04-24T04:31:00;3.88;;;1.80;;
46651;SDS011;32377;52.182;5.398;2023-04-24T04:33:25;2.92;;;1.77;;
46651;SDS011;32377;52.182;5.398;2023-04-24T04:35:51;3.67;;;2.20;;
46651;SDS011;32377;52.182;5.398;2023-04-24T04:38:18;3.67;;;2.08;;
46651;SDS011;32377;52.182;5.398;2023-04-24T04:40:44;2.90;;;1.70;;
46651;SDS011;32377;52.182;5.398;2023-04-24T04:43:10;2.63;;;2.17;;
46651;SDS011;32377;52.182;5.398;2023-04-24T04:45:38;4.53;;;2.53;;
46651;SDS011;32377;52.182;5.398;2023-04-24T04:48:05;2.72;;;2.28;;
46651;SDS011;32377;52.182;5.398;2023-04-24T04:50:32;3.33;;;2.38;;
46651;SDS011;32377;52.182;5.398;2023-04-24T04:52:58;4.35;;;2.55;;
46651;SDS011;32377;52.182;5.398;2023-04-24T04:55:23;6.45;;;2.40;;
46651;SDS011;32377;52.182;5.398;2023-04-24T04:57:49;3.70;;;2.33;;
46651;SDS011;32377;52.182;5.398;2023-04-24T05:00:15;10.52;;;2.63;;
46651;SDS011;32377;52.182;5.398;2023-04-24T05:02:41;4.18;;;2.63;;
46651;SDS011;32377;52.182;5.398;2023-04-24T05:05:07;3.35;;;2.60;;
46651;SDS011;32377;52.182;5.398;2023-04-24T05:07:33;5.28;;;3.17;;
46651;SDS011;32377;52.182;5.398;2023-04-24T05:09:59;6.07;;;3.10;;
46651;SDS011;32377;52.182;5.398;2023-04-24T05:12:24;5.22;;;3.22;;
46651;SDS011;32377;52.182;5.398;2023-04-24T05:14:50;4.80;;;3.45;;
46651;SDS011;32377;52.182;5.398;2023-04-24T05:17:16;5.35;;;3.70;;
46651;SDS011;32377;52.182;5.398;2023-04-24T05:19:42;6.78;;;4.00;;
46651;SDS011;32377;52.182;5.398;2023-04-24T05:22:07;7.97;;;4.38;;
46651;SDS011;32377;52.182;5.398;2023-04-24T05:24:34;10.65;;;5.30;;
46651;SDS011;32377;52.182;5.398;2023-04-24T05:27:00;9.55;;;5.43;;
46651;SDS011;32377;52.182;5.398;2023-04-24T05:29:27;10.23;;;5.40;;
46651;SDS011;32377;52.182;5.398;2023-04-24T05:31:55;8.40;;;4.88;;
46651;SDS011;32377;52.182;5.398;2023-04-24T05:34:21;10.45;;;5.72;;
46651;SDS011;32377;52.182;5.398;2023-04-24T05:36:47;8.43;;;5.75;;
46651;SDS011;32377;52.182;5.398;2023-04-24T05:39:13;12.50;;;6.00;;
46651;SDS011;32377;52.182;5.398;2023-04-24T05:41:38;11.02;;;6.25;;
46651;SDS011;32377;52.182;5.398;2023-04-24T05:44:04;10.15;;;6.63;;
46651;SDS011;32377;52.182;5.398;2023-04-24T05:46:30;12.85;;;5.72;;
46651;SDS011;32377;52.182;5.398;2023-04-24T05:48:55;11.10;;;6.57;;
46651;SDS011;32377;52.182;5.398;2023-04-24T05:51:21;9.65;;;5.47;;
46651;SDS011;32377;52.182;5.398;2023-04-24T05:53:47;14.77;;;6.85;;
46651;SDS011;32377;52.182;5.398;2023-04-24T05:56:12;10.75;;;5.35;;
46651;SDS011;32377;52.182;5.398;2023-04-24T05:58:38;9.43;;;4.60;;
46651;SDS011;32377;52.182;5.398;2023-04-24T06:01:04;9.57;;;4.88;;
46651;SDS011;32377;52.182;5.398;2023-04-24T06:03:30;6.35;;;4.32;;
46651;SDS011;32377;52.182;5.398;2023-04-24T06:05:56;6.82;;;3.38;;
46651;SDS011;32377;52.182;5.398;2023-04-24T06:08:21;7.88;;;3.15;;
46651;SDS011;32377;52.182;5.398;2023-04-24T06:10:47;4.63;;;2.90;;
46651;SDS011;32377;52.182;5.398;2023-04-24T06:13:13;5.60;;;2.53;;
46651;SDS011;32377;52.182;5.398;2023-04-24T06:15:38;7.57;;;2.10;;
46651;SDS011;32377;52.182;5.398;2023-04-24T06:18:04;5.10;;;2.08;;
46651;SDS011;32377;52.182;5.398;2023-04-24T06:20:30;2.65;;;1.75;;
46651;SDS011;32377;52.182;5.398;2023-04-24T06:22:55;4.65;;;1.35;;
46651;SDS011;32377;52.182;5.398;2023-04-24T06:25:21;6.63;;;1.58;;
46651;SDS011;32377;52.182;5.398;2023-04-24T06:27:46;2.08;;;1.33;;
46651;SDS011;32377;52.182;5.398;2023-04-24T06:30:12;4.03;;;1.60;;
46651;SDS011;32377;52.182;5.398;2023-04-24T06:32:39;2.92;;;1.70;;
46651;SDS011;32377;52.182;5.398;2023-04-24T06:35:05;4.82;;;3.22;;
46651;SDS011;32377;52.182;5.398;2023-04-24T06:37:32;10.68;;;6.07;;
46651;SDS011;32377;52.182;5.398;2023-04-24T06:39:58;17.77;;;8.73;;
46651;SDS011;32377;52.182;5.398;2023-04-24T06:42:24;23.60;;;11.15;;
46651;SDS011;32377;52.182;5.398;2023-04-24T06:44:50;23.52;;;12.65;;
46651;SDS011;32377;52.182;5.398;2023-04-24T06:47:15;23.55;;;13.27;;
46651;SDS011;32377;52.182;5.398;2023-04-24T06:49:41;26.92;;;13.48;;
46651;SDS011;32377;52.182;5.398;2023-04-24T06:52:07;28.65;;;15.35;;
46651;SDS011;32377;52.182;5.398;2023-04-24T06:54:33;28.00;;;15.13;;
46651;SDS011;32377;52.182;5.398;2023-04-24T06:56:59;30.08;;;15.50;;
46651;SDS011;32377;52.182;5.398;2023-04-24T06:59:28;26.73;;;14.55;;
46651;SDS011;32377;52.182;5.398;2023-04-24T07:01:54;29.10;;;15.35;;
46651;SDS011;32377;52.182;5.398;2023-04-24T07:04:20;33.05;;;16.25;;
46651;SDS011;32377;52.182;5.398;2023-04-24T07:06:46;28.65;;;16.05;;
46651;SDS011;32377;52.182;5.398;2023-04-24T07:09:14;33.08;;;16.98;;
46651;SDS011;32377;52.182;5.398;2023-04-24T07:11:41;27.27;;;15.60;;
46651;SDS011;32377;52.182;5.398;2023-04-24T07:14:07;33.22;;;14.80;;
46651;SDS011;32377;52.182;5.398;2023-04-24T07:16:32;31.20;;;15.73;;
46651;SDS011;32377;52.182;5.398;2023-04-24T07:18:58;34.92;;;16.42;;
46651;SDS011;32377;52.182;5.398;2023-04-24T07:21:23;31.70;;;17.10;;
46651;SDS011;32377;52.182;5.398;2023-04-24T07:23:50;35.60;;;16.08;;
46651;SDS011;32377;52.182;5.398;2023-04-24T07:26:17;36.83;;;15.35;;
46651;SDS011;32377;52.182;5.398;2023-04-24T07:28:42;45.55;;;16.15;;
46651;SDS011;32377;52.182;5.398;2023-04-24T07:31:08;34.63;;;16.17;;
46651;SDS011;32377;52.182;5.398;2023-04-24T07:33:34;38.22;;;16.88;;
46651;SDS011;32377;52.182;5.398;2023-04-24T07:36:01;37.22;;;14.85;;
46651;SDS011;32377;52.182;5.398;2023-04-24T07:38:26;34.75;;;15.63;;
46651;SDS011;32377;52.182;5.398;2023-04-24T07:40:54;29.17;;;13.70;;
46651;SDS011;32377;52.182;5.398;2023-04-24T07:43:20;32.47;;;14.23;;
46651;SDS011;32377;52.182;5.398;2023-04-24T07:45:46;29.70;;;13.73;;
46651;SDS011;32377;52.182;5.398;2023-04-24T07:48:12;29.38;;;14.07;;
46651;SDS011;32377;52.182;5.398;2023-04-24T07:50:41;38.35;;;15.55;;
46651;SDS011;32377;52.182;5.398;2023-04-24T07:53:07;31.45;;;15.15;;
46651;SDS011;32377;52.182;5.398;2023-04-24T07:55:32;28.15;;;13.65;;
46651;SDS011;32377;52.182;5.398;2023-04-24T07:57:58;36.95;;;14.55;;
46651;SDS011;32377;52.182;5.398;2023-04-24T08:00:24;30.52;;;15.15;;
46651;SDS011;32377;52.182;5.398;2023-04-24T08:02:49;25.98;;;13.38;;
46651;SDS011;32377;52.182;5.398;2023-04-24T08:05:15;30.73;;;14.15;;
46651;SDS011;32377;52.182;5.398;2023-04-24T08:07:41;37.88;;;15.43;;
46651;SDS011;32377;52.182;5.398;2023-04-24T08:10:11;32.33;;;13.30;;
46651;SDS011;32377;52.182;5.398;2023-04-24T08:12:36;30.60;;;11.75;;
46651;SDS011;32377;52.182;5.398;2023-04-24T08:15:03;23.15;;;11.20;;
46651;SDS011;32377;52.182;5.398;2023-04-24T08:17:29;32.85;;;12.15;;
46651;SDS011;32377;52.182;5.398;2023-04-24T08:19:55;30.75;;;10.60;;
46651;SDS011;32377;52.182;5.398;2023-04-24T08:22:26;30.42;;;11.05;;
46651;SDS011;32377;52.182;5.398;2023-04-24T08:24:52;33.95;;;11.07;;
46651;SDS011;32377;52.182;5.398;2023-04-24T08:27:18;23.00;;;9.93;;
46651;SDS011;32377;52.182;5.398;2023-04-24T08:29:43;32.65;;;9.75;;
46651;SDS011;32377;52.182;5.398;2023-04-24T08:32:09;31.30;;;9.43;;
46651;SDS011;32377;52.182;5.398;2023-04-24T08:34:35;17.98;;;6.18;;
46651;SDS011;32377;52.182;5.398;2023-04-24T08:37:00;25.15;;;6.63;;
46651;SDS011;32377;52.182;5.398;2023-04-24T08:39:27;21.77;;;7.85;;
46651;SDS011;32377;52.182;5.398;2023-04-24T08:41:52;29.23;;;6.90;;
46651;SDS011;32377;52.182;5.398;2023-04-24T08:44:18;25.98;;;8.02;;
46651;SDS011;32377;52.182;5.398;2023-04-24T08:46:45;31.73;;;8.45;;
46651;SDS011;32377;52.182;5.398;2023-04-24T08:49:13;27.35;;;7.78;;
46651;SDS011;32377;52.182;5.398;2023-04-24T08:51:42;29.35;;;8.27;;
46651;SDS011;32377;52.182;5.398;2023-04-24T08:54:09;39.25;;;10.50;;
46651;SDS011;32377;52.182;5.398;2023-04-24T08:56:36;27.40;;;7.80;;
46651;SDS011;32377;52.182;5.398;2023-04-24T08:59:05;33.38;;;6.93;;
46651;SDS011;32377;52.182;5.398;2023-04-24T09:01:31;27.88;;;5.97;;
46651;SDS011;32377;52.182;5.398;2023-04-24T09:03:58;28.80;;;6.07;;
46651;SDS011;32377;52.182;5.398;2023-04-24T09:06:29;25.30;;;6.10;;
46651;SDS011;32377;52.182;5.398;2023-04-24T09:08:57;16.13;;;4.55;;
46651;SDS011;32377;52.182;5.398;2023-04-24T09:11:27;17.42;;;4.75;;
46651;SDS011;32377;52.182;5.398;2023-04-24T09:13:55;24.98;;;5.07;;
46651;SDS011;32377;52.182;5.398;2023-04-24T09:16:21;18.42;;;4.57;;
46651;SDS011;32377;52.182;5.398;2023-04-24T09:18:49;24.48;;;4.25;;
46651;SDS011;32377;52.182;5.398;2023-04-24T09:21:15;16.50;;;4.45;;
46651;SDS011;32377;52.182;5.398;2023-04-24T09:23:43;17.75;;;4.85;;
46651;SDS011;32377;52.182;5.398;2023-04-24T09:26:09;17.83;;;4.90;;
46651;SDS011;32377;52.182;5.398;2023-04-24T09:28:36;17.30;;;3.97;;
46651;SDS011;32377;52.182;5.398;2023-04-24T09:31:13;12.00;;;3.10;;
46651;SDS011;32377;52.182;5.398;2023-04-24T09:33:53;14.18;;;3.20;;
46651;SDS011;32377;52.182;5.398;2023-04-24T09:36:42;10.90;;;3.40;;
46651;SDS011;32377;52.182;5.398;2023-04-24T09:39:09;9.63;;;3.60;;
46651;SDS011;32377;52.182;5.398;2023-04-24T09:41:43;15.60;;;3.63;;
46651;SDS011;32377;52.182;5.398;2023-04-24T09:44:24;14.15;;;3.70;;
46651;SDS011;32377;52.182;5.398;2023-04-24T09:46:52;15.75;;;3.97;;
46651;SDS011;32377;52.182;5.398;2023-04-24T09:49:25;15.32;;;2.92;;
46651;SDS011;32377;52.182;5.398;2023-04-24T09:52:08;15.13;;;4.15;;
46651;SDS011;32377;52.182;5.398;2023-04-24T09:54:35;17.85;;;4.28;;
46651;SDS011;32377;52.182;5.398;2023-04-24T09:59:19;19.77;;;4.75;;
46651;SDS011;32377;52.182;5.398;2023-04-24T10:01:45;15.40;;;4.22;;
46651;SDS011;32377;52.182;5.398;2023-04-24T10:04:24;19.75;;;3.42;;
46651;SDS011;32377;52.182;5.398;2023-04-24T10:06:52;18.70;;;4.05;;
46651;SDS011;32377;52.182;5.398;2023-04-24T10:09:20;15.32;;;3.47;;
46651;SDS011;32377;52.182;5.398;2023-04-24T10:11:48;12.48;;;2.97;;
46651;SDS011;32377;52.182;5.398;2023-04-24T10:14:15;11.65;;;3.33;;
46651;SDS011;32377;52.182;5.398;2023-04-24T10:16:42;14.25;;;3.42;;
46651;SDS011;32377;52.182;5.398;2023-04-24T10:19:09;13.73;;;3.20;;
46651;SDS011;32377;52.182;5.398;2023-04-24T10:21:36;18.13;;;3.97;;
46651;SDS011;32377;52.182;5.398;2023-04-24T10:24:07;9.40;;;2.30;;
46651;SDS011;32377;52.182;5.398;2023-04-24T10:26:34;6.63;;;1.85;;
46651;SDS011;32377;52.182;5.398;2023-04-24T10:29:00;8.65;;;1.60;;
46651;SDS011;32377;52.182;5.398;2023-04-24T10:31:26;12.13;;;1.40;;
46651;SDS011;32377;52.182;5.398;2023-04-24T10:33:55;7.75;;;1.50;;
46651;SDS011;32377;52.182;5.398;2023-04-24T10:36:23;10.00;;;2.10;;
46651;SDS011;32377;52.182;5.398;2023-04-24T10:38:51;6.38;;;1.83;;
46651;SDS011;32377;52.182;5.398;2023-04-24T10:41:19;7.45;;;1.50;;
46651;SDS011;32377;52.182;5.398;2023-04-24T10:43:48;7.50;;;2.10;;
46651;SDS011;32377;52.182;5.398;2023-04-24T10:46:29;5.47;;;1.55;;
46651;SDS011;32377;52.182;5.398;2023-04-24T10:48:56;7.25;;;1.90;;
46651;SDS011;32377;52.182;5.398;2023-04-24T10:51:23;5.18;;;1.70;;
46651;SDS011;32377;52.182;5.398;2023-04-24T10:53:52;3.80;;;1.60;;
46651;SDS011;32377;52.182;5.398;2023-04-24T10:56:18;10.43;;;1.60;;
46651;SDS011;32377;52.182;5.398;2023-04-24T10:58:47;9.43;;;2.00;;
46651;SDS011;32377;52.182;5.398;2023-04-24T11:01:23;8.65;;;1.40;;
46651;SDS011;32377;52.182;5.398;2023-04-24T11:03:54;13.18;;;2.38;;
46651;SDS011;32377;52.182;5.398;2023-04-24T11:06:31;8.50;;;2.15;;
46651;SDS011;32377;52.182;5.398;2023-04-24T11:09:09;7.28;;;1.77;;
46651;SDS011;32377;52.182;5.398;2023-04-24T11:11:38;10.13;;;1.85;;
46651;SDS011;32377;52.182;5.398;2023-04-24T11:14:09;6.63;;;1.85;;
46651;SDS011;32377;52.182;5.398;2023-04-24T11:16:37;14.10;;;2.00;;
46651;SDS011;32377;52.182;5.398;2023-04-24T11:19:10;11.35;;;2.47;;
46651;SDS011;32377;52.182;5.398;2023-04-24T11:21:45;4.88;;;1.50;;
46651;SDS011;32377;52.182;5.398;2023-04-24T11:26:51;7.35;;;1.85;;
46651;SDS011;32377;52.182;5.398;2023-04-24T11:29:19;6.95;;;2.25;;
46651;SDS011;32377;52.182;5.398;2023-04-24T11:31:46;5.03;;;1.40;;
46651;SDS011;32377;52.182;5.398;2023-04-24T11:34:16;2.65;;;1.25;;
46651;SDS011;32377;52.182;5.398;2023-04-24T11:36:43;8.02;;;1.40;;
46651;SDS011;32377;52.182;5.398;2023-04-24T11:39:10;7.55;;;1.50;;
46651;SDS011;32377;52.182;5.398;2023-04-24T11:41:37;6.75;;;1.65;;
46651;SDS011;32377;52.182;5.398;2023-04-24T11:44:05;2.85;;;1.10;;
46651;SDS011;32377;52.182;5.398;2023-04-24T11:46:33;4.13;;;0.98;;
46651;SDS011;32377;52.182;5.398;2023-04-24T11:48:59;3.00;;;0.65;;
46651;SDS011;32377;52.182;5.398;2023-04-24T11:51:26;3.17;;;0.88;;
46651;SDS011;32377;52.182;5.398;2023-04-24T11:53:55;4.80;;;0.40;;
46651;SDS011;32377;52.182;5.398;2023-04-24T11:56:22;6.38;;;1.00;;
46651;SDS011;32377;52.182;5.398;2023-04-24T11:58:48;1.67;;;0.57;;
46651;SDS011;32377;52.182;5.398;2023-04-24T12:01:16;5.32;;;0.70;;
46651;SDS011;32377;52.182;5.398;2023-04-24T12:03:46;1.42;;;0.73;;
46651;SDS011;32377;52.182;5.398;2023-04-24T12:06:12;4.35;;;1.13;;
46651;SDS011;32377;52.182;5.398;2023-04-24T12:08:38;3.33;;;0.88;;
46651;SDS011;32377;52.182;5.398;2023-04-24T12:11:04;4.68;;;0.95;;
46651;SDS011;32377;52.182;5.398;2023-04-24T12:13:34;6.57;;;1.40;;
46651;SDS011;32377;52.182;5.398;2023-04-24T12:16:01;7.60;;;1.15;;
46651;SDS011;32377;52.182;5.398;2023-04-24T12:18:28;7.53;;;1.50;;
46651;SDS011;32377;52.182;5.398;2023-04-24T12:20:53;8.13;;;1.33;;
46651;SDS011;32377;52.182;5.398;2023-04-24T12:23:34;3.97;;;1.00;;
46651;SDS011;32377;52.182;5.398;2023-04-24T12:26:00;5.30;;;1.75;;
46651;SDS011;32377;52.182;5.398;2023-04-24T12:28:37;6.80;;;1.30;;
46651;SDS011;32377;52.182;5.398;2023-04-24T12:31:03;4.85;;;1.35;;
46651;SDS011;32377;52.182;5.398;2023-04-24T12:33:32;4.78;;;1.00;;
46651;SDS011;32377;52.182;5.398;2023-04-24T12:35:59;8.32;;;1.67;;
46651;SDS011;32377;52.182;5.398;2023-04-24T12:38:26;7.15;;;1.52;;
46651;SDS011;32377;52.182;5.398;2023-04-24T12:41:01;6.35;;;1.67;;
46651;SDS011;32377;52.182;5.398;2023-04-24T12:43:29;7.00;;;1.45;;
46651;SDS011;32377;52.182;5.398;2023-04-24T12:45:54;6.18;;;1.55;;
46651;SDS011;32377;52.182;5.398;2023-04-24T12:48:20;7.55;;;1.45;;
46651;SDS011;32377;52.182;5.398;2023-04-24T12:50:47;11.48;;;2.63;;
46651;SDS011;32377;52.182;5.398;2023-04-24T12:53:12;13.50;;;2.30;;
46651;SDS011;32377;52.182;5.398;2023-04-24T12:55:39;11.27;;;1.95;;
46651;SDS011;32377;52.182;5.398;2023-04-24T12:58:05;10.73;;;2.35;;
46651;SDS011;32377;52.182;5.398;2023-04-24T13:00:31;10.52;;;2.50;;
46651;SDS011;32377;52.182;5.398;2023-04-24T13:02:57;7.47;;;2.30;;
46651;SDS011;32377;52.182;5.398;2023-04-24T13:05:23;14.25;;;3.17;;
46651;SDS011;32377;52.182;5.398;2023-04-24T13:07:48;17.33;;;3.35;;
46651;SDS011;32377;52.182;5.398;2023-04-24T13:10:14;11.43;;;3.33;;
46651;SDS011;32377;52.182;5.398;2023-04-24T13:12:40;16.23;;;3.58;;
46651;SDS011;32377;52.182;5.398;2023-04-24T13:15:06;22.05;;;3.80;;
46651;SDS011;32377;52.182;5.398;2023-04-24T13:17:32;22.27;;;3.88;;
46651;SDS011;32377;52.182;5.398;2023-04-24T13:19:58;18.77;;;3.38;;
46651;SDS011;32377;52.182;5.398;2023-04-24T13:22:23;13.82;;;2.85;;
46651;SDS011;32377;52.182;5.398;2023-04-24T13:24:49;16.35;;;3.40;;
46651;SDS011;32377;52.182;5.398;2023-04-24T13:27:16;16.75;;;3.67;;
46651;SDS011;32377;52.182;5.398;2023-04-24T13:29:41;21.40;;;3.20;;
46651;SDS011;32377;52.182;5.398;2023-04-24T13:32:08;12.82;;;3.15;;
46651;SDS011;32377;52.182;5.398;2023-04-24T13:34:34;12.07;;;3.35;;
46651;SDS011;32377;52.182;5.398;2023-04-24T13:37:00;22.70;;;3.53;;
46651;SDS011;32377;52.182;5.398;2023-04-24T13:39:26;11.65;;;3.00;;
46651;SDS011;32377;52.182;5.398;2023-04-24T13:41:52;15.60;;;3.20;;
46651;SDS011;32377;52.182;5.398;2023-04-24T13:44:18;12.18;;;3.72;;
46651;SDS011;32377;52.182;5.398;2023-04-24T13:46:45;18.15;;;3.45;;
46651;SDS011;32377;52.182;5.398;2023-04-24T13:49:13;14.30;;;3.15;;
46651;SDS011;32377;52.182;5.398;2023-04-24T13:51:40;15.38;;;3.28;;
46651;SDS011;32377;52.182;5.398;2023-04-24T13:54:06;15.50;;;3.50;;
46651;SDS011;32377;52.182;5.398;2023-04-24T13:56:32;12.98;;;4.18;;
46651;SDS011;32377;52.182;5.398;2023-04-24T13:58:58;19.08;;;3.67;;
46651;SDS011;32377;52.182;5.398;2023-04-24T14:01:23;18.27;;;3.83;;
46651;SDS011;32377;52.182;5.398;2023-04-24T14:03:53;21.08;;;3.72;;
46651;SDS011;32377;52.182;5.398;2023-04-24T14:06:20;9.52;;;3.33;;
46651;SDS011;32377;52.182;5.398;2023-04-24T14:08:47;15.88;;;2.80;;
46651;SDS011;32377;52.182;5.398;2023-04-24T14:11:13;13.85;;;3.38;;
46651;SDS011;32377;52.182;5.398;2023-04-24T14:13:40;15.23;;;3.58;;
46651;SDS011;32377;52.182;5.398;2023-04-24T14:16:07;15.73;;;3.85;;
46651;SDS011;32377;52.182;5.398;2023-04-24T14:18:33;14.27;;;3.53;;
46651;SDS011;32377;52.182;5.398;2023-04-24T14:20:59;14.85;;;3.92;;
46651;SDS011;32377;52.182;5.398;2023-04-24T14:23:26;17.33;;;4.35;;
46651;SDS011;32377;52.182;5.398;2023-04-24T14:25:51;19.73;;;4.68;;
46651;SDS011;32377;52.182;5.398;2023-04-24T14:28:18;20.92;;;4.43;;
46651;SDS011;32377;52.182;5.398;2023-04-24T14:30:45;17.75;;;4.03;;
46651;SDS011;32377;52.182;5.398;2023-04-24T14:33:11;18.35;;;4.72;;
46651;SDS011;32377;52.182;5.398;2023-04-24T14:35:37;18.70;;;4.90;;
46651;SDS011;32377;52.182;5.398;2023-04-24T14:38:03;18.10;;;3.85;;
46651;SDS011;32377;52.182;5.398;2023-04-24T14:40:29;18.27;;;4.25;;
46651;SDS011;32377;52.182;5.398;2023-04-24T14:42:56;13.07;;;3.95;;
46651;SDS011;32377;52.182;5.398;2023-04-24T14:45:22;16.75;;;3.92;;